createdAt,value
2022-11-16T00:00:00.303Z,6.59
2022-11-16T00:02:52.945Z,6.60
2022-11-16T00:05:25.513Z,6.62
2022-11-16T00:07:56.622Z,6.62
2022-11-16T00:10:24.967Z,6.61
2022-11-16T00:12:53.170Z,6.61
2022-11-16T00:15:21.494Z,6.61
2022-11-16T00:17:49.740Z,6.61
2022-11-16T00:20:17.896Z,6.63
2022-11-16T00:22:46.118Z,6.64
2022-11-16T00:25:14.496Z,6.65
2022-11-16T00:27:42.676Z,6.67
2022-11-16T00:30:11.250Z,6.66
2022-11-16T00:32:39.516Z,6.67
2022-11-16T00:35:08.360Z,6.68
2022-11-16T00:37:36.574Z,6.69
2022-11-16T00:40:05.373Z,6.70
2022-11-16T00:42:33.780Z,6.72
2022-11-16T00:45:01.927Z,6.72
2022-11-16T00:47:30.153Z,6.74
2022-11-16T00:49:58.414Z,6.75
2022-11-16T00:52:26.629Z,6.76
2022-11-16T00:54:56.090Z,6.75
2022-11-16T00:57:24.499Z,6.75
2022-11-16T00:59:52.709Z,6.74
2022-11-16T01:02:21.653Z,6.75
2022-11-16T01:04:49.847Z,6.76
2022-11-16T01:07:18.037Z,6.76
2022-11-16T01:09:46.287Z,6.77
2022-11-16T01:12:14.504Z,6.78
2022-11-16T01:14:44.838Z,6.80
2022-11-16T01:17:14.811Z,6.81
2022-11-16T01:19:43.187Z,6.83
2022-11-16T01:22:11.436Z,6.81
2022-11-16T01:24:39.791Z,6.79
2022-11-16T01:27:08.060Z,6.80
2022-11-16T01:29:38.787Z,6.81
2022-11-16T01:32:07.076Z,6.83
2022-11-16T01:34:36.135Z,6.81
2022-11-16T01:37:11.207Z,6.77
2022-11-16T01:39:41.496Z,6.73
2022-11-16T01:42:25.813Z,6.69
2022-11-16T01:45:18.920Z,6.66
2022-11-16T01:47:48.871Z,6.67
2022-11-16T01:50:21.221Z,6.69
2022-11-16T01:53:00.094Z,6.69
2022-11-16T01:55:35.517Z,6.66
2022-11-16T01:58:23.827Z,6.65
2022-11-16T02:01:00.222Z,6.63
2022-11-16T02:03:44.815Z,6.62
2022-11-16T02:06:28.362Z,6.60
2022-11-16T02:09:48.191Z,6.58
2022-11-16T02:12:39.468Z,6.57
2022-11-16T02:15:25.450Z,6.55
2022-11-16T02:18:37.365Z,6.53
2022-11-16T02:21:16.787Z,6.50
2022-11-16T02:23:51.239Z,6.48
2022-11-16T02:26:31.734Z,6.49
2022-11-16T02:29:18.296Z,6.50
2022-11-16T02:31:52.911Z,6.49
2022-11-16T02:34:24.065Z,6.49
2022-11-16T02:36:55.265Z,6.49
2022-11-16T02:39:27.429Z,6.52
2022-11-16T02:41:59.009Z,6.56
2022-11-16T02:44:37.236Z,6.58
2022-11-16T02:47:09.522Z,6.62
2022-11-16T02:49:42.562Z,6.66
2022-11-16T02:52:12.453Z,6.69
2022-11-16T02:54:40.824Z,6.71
2022-11-16T02:57:08.906Z,6.74
2022-11-16T02:59:42.166Z,6.76
2022-11-16T03:02:49.786Z,6.79
2022-11-16T03:05:48.203Z,6.80
2022-11-16T03:08:25.060Z,6.83
2022-11-16T03:11:17.084Z,6.85
2022-11-16T03:13:47.384Z,6.86
2022-11-16T03:16:36.371Z,6.86
2022-11-16T03:19:10.459Z,6.87
2022-11-16T03:21:59.551Z,6.87
2022-11-16T03:24:28.137Z,6.85
2022-11-16T03:27:12.556Z,6.84
2022-11-16T03:29:53.850Z,6.84
2022-11-16T03:32:29.019Z,6.85
2022-11-16T03:35:06.715Z,6.87
2022-11-16T03:37:36.971Z,6.90
2022-11-16T03:40:07.607Z,6.93
2022-11-16T03:42:36.610Z,6.95
2022-11-16T03:45:05.578Z,6.95
2022-11-16T03:47:34.767Z,6.93
2022-11-16T03:50:05.200Z,6.92
2022-11-16T03:52:35.088Z,6.93
2022-11-16T03:55:05.114Z,6.93
2022-11-16T03:57:35.290Z,6.94
2022-11-16T04:00:06.358Z,6.96
2022-11-16T04:02:41.498Z,6.97
2022-11-16T04:05:29.269Z,6.99
2022-11-16T04:08:16.072Z,7.00
2022-11-16T04:11:03.283Z,7.01
2022-11-16T04:13:53.088Z,7.03
2022-11-16T04:16:39.902Z,7.03
2022-11-16T04:19:28.162Z,7.03
2022-11-16T04:22:19.243Z,7.04
2022-11-16T04:24:54.805Z,7.07
2022-11-16T04:27:50.035Z,7.10
2022-11-16T04:30:19.790Z,7.12
2022-11-16T04:33:07.263Z,7.13
2022-11-16T04:35:54.083Z,7.12
2022-11-16T04:38:22.243Z,7.12
2022-11-16T04:40:50.478Z,7.13
2022-11-16T04:43:18.702Z,7.14
2022-11-16T04:46:05.860Z,7.16
2022-11-16T04:48:38.051Z,7.18
2022-11-16T04:51:06.379Z,7.20
2022-11-16T04:53:34.957Z,7.21
2022-11-16T04:56:09.088Z,7.22
2022-11-16T04:58:37.235Z,7.24
2022-11-16T05:01:05.368Z,7.25
2022-11-16T05:03:34.437Z,7.25
2022-11-16T05:06:02.635Z,7.25
2022-11-16T05:08:31.368Z,7.25
2022-11-16T05:11:00.181Z,7.25
2022-11-16T05:13:28.658Z,7.27
2022-11-16T05:15:56.842Z,7.28
2022-11-16T05:18:25.046Z,7.29
2022-11-16T05:21:02.462Z,7.29
2022-11-16T05:23:53.058Z,7.30
2022-11-16T05:26:22.406Z,7.30
2022-11-16T05:28:50.911Z,7.32
2022-11-16T05:31:19.331Z,7.34
2022-11-16T05:33:48.650Z,7.34
2022-11-16T05:36:17.180Z,7.35
2022-11-16T05:38:45.509Z,7.36
2022-11-16T05:41:13.685Z,7.37
2022-11-16T05:43:42.060Z,7.38
2022-11-16T05:46:15.159Z,7.38
2022-11-16T05:48:43.333Z,7.39
2022-11-16T05:51:11.557Z,7.40
2022-11-16T05:53:39.906Z,7.41
2022-11-16T05:56:08.687Z,7.39
2022-11-16T05:58:39.036Z,7.35
2022-11-16T06:01:07.408Z,7.34
2022-11-16T06:03:36.467Z,7.34
2022-11-16T06:06:05.448Z,7.33
2022-11-16T06:08:33.993Z,7.33
2022-11-16T06:11:06.303Z,7.34
2022-11-16T06:13:36.110Z,7.36
2022-11-16T06:16:05.533Z,7.37
2022-11-16T06:18:38.808Z,7.37
2022-11-16T06:21:08.873Z,7.37
2022-11-16T06:23:37.353Z,7.37
2022-11-16T06:26:06.890Z,7.35
2022-11-16T06:28:36.630Z,7.33
2022-11-16T06:31:05.244Z,7.31
2022-11-16T06:33:36.448Z,7.29
2022-11-16T06:36:06.992Z,7.29
2022-11-16T06:38:35.263Z,7.30
2022-11-16T06:41:03.847Z,7.33
2022-11-16T06:43:33.094Z,7.34
2022-11-16T06:46:01.304Z,7.35
2022-11-16T06:48:30.513Z,7.35
2022-11-16T06:50:59.855Z,7.35
2022-11-16T06:53:29.593Z,7.34
2022-11-16T06:56:06.691Z,7.33
2022-11-16T06:58:41.684Z,7.31
2022-11-16T07:01:12.350Z,7.30
2022-11-16T07:03:41.872Z,7.30
2022-11-16T07:06:12.231Z,7.30
2022-11-16T07:08:41.603Z,7.32
2022-11-16T07:11:10.673Z,7.34
2022-11-16T07:13:39.155Z,7.35
2022-11-16T07:16:10.151Z,7.35
2022-11-16T07:18:41.394Z,7.35
2022-11-16T07:21:13.147Z,7.35
2022-11-16T07:23:42.065Z,7.34
2022-11-16T07:26:11.859Z,7.33
2022-11-16T07:28:48.179Z,7.30
2022-11-16T07:31:18.962Z,7.28
2022-11-16T07:33:47.596Z,7.26
2022-11-16T07:36:18.615Z,7.22
2022-11-16T07:38:47.122Z,7.19
2022-11-16T07:41:19.981Z,7.16
2022-11-16T07:44:20.944Z,7.03
2022-11-16T07:47:01.872Z,6.87
2022-11-16T07:49:30.876Z,6.74
2022-11-16T07:52:03.816Z,6.63
2022-11-16T07:54:40.660Z,6.53
2022-11-16T07:57:09.341Z,6.45
2022-11-16T07:59:37.501Z,6.40
2022-11-16T08:02:06.082Z,6.32
2022-11-16T08:04:34.364Z,6.26
2022-11-16T08:07:02.578Z,6.22
2022-11-16T08:09:34.861Z,6.20
2022-11-16T08:12:03.322Z,6.20
2022-11-16T08:14:32.288Z,6.19
2022-11-16T08:17:00.369Z,6.18
2022-11-16T08:19:29.183Z,6.17
2022-11-16T08:21:57.660Z,6.16
2022-11-16T08:24:28.155Z,6.14
2022-11-16T08:26:58.755Z,6.12
2022-11-16T08:29:27.111Z,6.11
2022-11-16T08:31:55.564Z,6.11
2022-11-16T08:34:23.908Z,6.13
2022-11-16T08:36:54.111Z,6.13
2022-11-16T08:39:26.865Z,6.12
2022-11-16T08:41:55.100Z,6.14
2022-11-16T08:44:23.276Z,6.15
2022-11-16T08:46:53.822Z,6.17
2022-11-16T08:49:31.316Z,6.20
2022-11-16T08:51:59.692Z,6.22
2022-11-16T08:54:31.357Z,6.20
2022-11-16T08:56:59.562Z,6.20
2022-11-16T08:59:29.176Z,6.22
2022-11-16T09:02:00.794Z,6.24
2022-11-16T09:04:34.100Z,6.24
2022-11-16T09:07:05.011Z,6.25
2022-11-16T09:09:33.267Z,6.26
2022-11-16T09:12:01.407Z,6.27
2022-11-16T09:14:30.675Z,6.29
2022-11-16T09:16:58.798Z,6.30
2022-11-16T09:19:26.974Z,6.32
2022-11-16T09:21:55.728Z,6.34
2022-11-16T09:24:23.834Z,6.35
2022-11-16T09:26:51.961Z,6.35
2022-11-16T09:29:20.083Z,6.35
2022-11-16T09:31:48.306Z,6.36
2022-11-16T09:34:16.423Z,6.37
2022-11-16T09:36:44.610Z,6.38
2022-11-16T09:39:29.967Z,6.41
2022-11-16T09:42:21.993Z,6.45
2022-11-16T09:45:16.361Z,6.50
2022-11-16T09:47:50.192Z,6.55
2022-11-16T09:50:43.778Z,6.57
2022-11-16T09:53:25.892Z,6.59
2022-11-16T09:55:58.552Z,6.63
2022-11-16T09:58:39.880Z,6.65
2022-11-16T10:01:21.138Z,6.68
2022-11-16T10:03:53.988Z,6.71
2022-11-16T10:06:37.112Z,6.72
2022-11-16T10:09:05.651Z,6.74
2022-11-16T10:11:47.187Z,6.75
2022-11-16T10:14:41.789Z,6.76
2022-11-16T10:17:46.959Z,6.79
2022-11-16T10:20:31.121Z,6.81
2022-11-16T10:23:14.775Z,6.84
2022-11-16T10:25:45.164Z,6.88
2022-11-16T10:28:34.675Z,6.90
2022-11-16T10:31:21.135Z,6.91
2022-11-16T10:33:54.148Z,6.92
2022-11-16T10:36:27.486Z,6.95
2022-11-16T10:38:57.327Z,6.94
2022-11-16T10:41:31.417Z,6.94
2022-11-16T10:43:59.761Z,6.96
2022-11-16T10:46:42.176Z,6.95
2022-11-16T10:49:22.800Z,6.95
2022-11-16T10:51:51.046Z,6.95
2022-11-16T10:54:19.197Z,6.95
2022-11-16T10:56:49.702Z,6.95
2022-11-16T10:59:21.332Z,6.96
2022-11-16T11:01:53.208Z,6.96
2022-11-16T11:04:26.859Z,6.95
2022-11-16T11:06:58.189Z,6.95
2022-11-16T11:09:35.287Z,6.93
2022-11-16T11:12:32.605Z,6.93
2022-11-16T11:15:25.798Z,6.95
2022-11-16T11:18:23.788Z,6.97
2022-11-16T11:20:57.939Z,6.98
2022-11-16T11:23:27.597Z,7.00
2022-11-16T11:25:58.542Z,7.01
2022-11-16T11:28:30.060Z,7.01
2022-11-16T11:31:05.873Z,7.01
2022-11-16T11:33:38.278Z,7.00
2022-11-16T11:36:14.752Z,7.02
2022-11-16T11:39:13.155Z,7.03
2022-11-16T11:41:44.995Z,7.04
2022-11-16T11:44:13.024Z,7.04
2022-11-16T11:47:42.198Z,7.04
2022-11-16T11:49:50.093Z,7.02
2022-11-16T11:52:31.440Z,7.02
2022-11-16T11:55:02.715Z,7.01
2022-11-16T11:57:34.944Z,6.99
2022-11-16T12:00:05.930Z,6.95
2022-11-16T12:03:07.721Z,6.90
2022-11-16T12:06:30.887Z,6.85
2022-11-16T12:09:04.719Z,6.83
2022-11-16T12:11:41.718Z,6.82
2022-11-16T12:14:41.090Z,6.80
2022-11-16T12:17:37.019Z,6.79
2022-11-16T12:20:16.659Z,6.76
2022-11-16T12:22:50.961Z,6.75
2022-11-16T12:25:37.376Z,6.74
2022-11-16T12:28:11.370Z,6.74
2022-11-16T12:31:02.274Z,6.74
2022-11-16T12:33:56.426Z,6.71
2022-11-16T12:36:44.536Z,6.71
2022-11-16T12:39:35.332Z,6.70
2022-11-16T12:42:40.826Z,6.69
2022-11-16T12:45:18.479Z,6.67
2022-11-16T12:47:52.343Z,6.66
2022-11-16T12:50:44.898Z,6.63
2022-11-16T12:53:26.604Z,6.61
2022-11-16T12:56:10.438Z,6.58
2022-11-16T12:58:57.140Z,6.56
2022-11-16T13:01:36.442Z,6.56
2022-11-16T13:04:15.556Z,6.58
2022-11-16T13:06:52.457Z,6.60
2022-11-16T13:09:26.149Z,6.60
2022-11-16T13:12:06.679Z,6.60
2022-11-16T13:14:40.802Z,6.58
2022-11-16T13:17:19.115Z,6.58
2022-11-16T13:20:15.101Z,6.57
2022-11-16T13:23:18.720Z,6.54
2022-11-16T13:25:56.608Z,6.49
2022-11-16T13:28:33.980Z,6.45
2022-11-16T13:31:10.748Z,6.42
2022-11-16T13:33:51.240Z,6.38
2022-11-16T13:36:31.774Z,6.35
2022-11-16T13:38:59.912Z,6.31
2022-11-16T13:41:31.767Z,6.28
2022-11-16T13:44:01.473Z,6.25
2022-11-16T13:46:56.261Z,6.23
2022-11-16T13:49:37.942Z,6.19
2022-11-16T13:52:23.295Z,6.14
2022-11-16T13:54:55.444Z,6.09
2022-11-16T13:57:26.188Z,6.07
2022-11-16T14:00:00.363Z,6.04
2022-11-16T14:02:37.324Z,6.03
2022-11-16T14:05:24.250Z,6.01
2022-11-16T14:07:52.351Z,6.00
2022-11-16T14:10:35.910Z,6.00
2022-11-16T14:13:06.317Z,6.01
2022-11-16T14:15:36.986Z,6.02
2022-11-16T14:18:08.662Z,6.00
2022-11-16T14:20:54.134Z,6.00
2022-11-16T14:23:28.287Z,5.97
2022-11-16T14:26:02.504Z,5.95
2022-11-16T14:28:55.811Z,5.93
2022-11-16T14:31:47.212Z,5.91
2022-11-16T14:34:22.431Z,5.89
2022-11-16T14:36:51.555Z,5.87
2022-11-16T14:39:38.614Z,5.87
2022-11-16T14:42:19.779Z,5.87
2022-11-16T14:44:49.694Z,5.87
2022-11-16T14:47:23.603Z,5.86
2022-11-16T14:49:52.704Z,5.85
2022-11-16T14:52:26.469Z,5.86
2022-11-16T14:55:00.288Z,5.86
2022-11-16T14:57:28.686Z,5.87
2022-11-16T15:00:30.351Z,5.87
2022-11-16T15:03:02.614Z,5.86
2022-11-16T15:05:35.629Z,5.85
2022-11-16T15:08:16.354Z,5.85
2022-11-16T15:10:51.110Z,5.83
2022-11-16T15:13:24.105Z,5.83
2022-11-16T15:16:16.394Z,5.83
2022-11-16T15:19:01.934Z,5.84
2022-11-16T15:21:30.058Z,5.84
2022-11-16T15:26:46.431Z,5.84
2022-11-16T15:29:19.910Z,5.84
2022-11-16T15:31:49.016Z,5.82
2022-11-16T15:34:19.652Z,5.81
2022-11-16T15:36:48.820Z,5.81
2022-11-16T15:39:20.091Z,5.82
2022-11-16T15:41:48.605Z,5.83
2022-11-16T15:44:20.415Z,5.83
2022-11-16T15:46:53.207Z,5.83
2022-11-16T15:49:35.903Z,5.83
2022-11-16T15:52:04.881Z,5.83
2022-11-16T15:54:55.509Z,5.82
2022-11-16T15:57:24.925Z,5.80
2022-11-16T15:59:55.537Z,5.78
2022-11-16T16:02:27.610Z,5.77
2022-11-16T16:04:56.105Z,5.77
2022-11-16T16:07:42.359Z,5.77
2022-11-16T16:10:22.055Z,5.77
2022-11-16T16:12:52.366Z,5.78
2022-11-16T16:15:36.786Z,5.77
2022-11-16T16:18:36.656Z,5.77
2022-11-16T16:21:04.808Z,5.75
2022-11-16T16:23:33.490Z,5.71
2022-11-16T16:26:04.616Z,5.69
2022-11-16T16:28:32.691Z,5.66
2022-11-16T16:31:00.888Z,5.65
2022-11-16T16:33:30.156Z,5.63
2022-11-16T16:35:58.241Z,5.61
2022-11-16T16:38:26.509Z,5.61
2022-11-16T16:41:02.709Z,5.59
2022-11-16T16:43:31.566Z,5.59
2022-11-16T16:46:02.070Z,5.59
2022-11-16T16:48:30.726Z,5.58
2022-11-16T16:50:58.874Z,5.57
2022-11-16T16:53:27.033Z,5.57
2022-11-16T16:55:55.352Z,5.55
2022-11-16T16:58:23.467Z,5.53
2022-11-16T17:00:53.706Z,5.51
2022-11-16T17:03:25.208Z,5.50
2022-11-16T17:05:59.615Z,5.48
2022-11-16T17:08:32.640Z,5.47
2022-11-16T17:11:01.494Z,5.46
2022-11-16T17:13:29.976Z,5.45
2022-11-16T17:15:58.086Z,5.44
2022-11-16T17:18:26.806Z,5.43
2022-11-16T17:20:54.990Z,5.42
2022-11-16T17:23:23.166Z,5.41
2022-11-16T17:25:51.297Z,5.42
2022-11-16T17:28:19.563Z,5.42
2022-11-16T17:30:47.734Z,5.42
2022-11-16T17:33:15.917Z,5.41
2022-11-16T17:35:44.112Z,5.37
2022-11-16T17:38:13.144Z,5.34
2022-11-16T17:40:41.290Z,5.32
2022-11-16T17:43:09.490Z,5.30
2022-11-16T17:45:37.532Z,5.29
2022-11-16T17:48:05.832Z,5.28
2022-11-16T17:50:34.048Z,5.26
2022-11-16T17:53:02.242Z,5.24
2022-11-16T17:55:30.459Z,5.22
2022-11-16T17:57:59.476Z,5.19
2022-11-16T18:00:32.490Z,5.17
2022-11-16T18:03:01.487Z,5.15
2022-11-16T18:05:30.420Z,5.15
2022-11-16T18:07:59.904Z,5.14
2022-11-16T18:10:28.123Z,5.13
2022-11-16T18:12:56.243Z,5.11
2022-11-16T18:15:28.873Z,5.10
2022-11-16T18:17:57.455Z,5.08
2022-11-16T18:20:27.666Z,5.04
2022-11-16T18:22:58.931Z,5.00
2022-11-16T18:25:42.098Z,4.96
2022-11-16T18:28:13.915Z,4.95
2022-11-16T18:30:51.647Z,4.92
2022-11-16T18:33:27.770Z,4.88
2022-11-16T18:35:58.599Z,4.82
2022-11-16T18:38:26.823Z,4.77
2022-11-16T18:41:04.896Z,4.73
2022-11-16T18:43:34.684Z,4.70
2022-11-16T18:46:03.266Z,4.65
2022-11-16T18:48:31.819Z,4.61
2022-11-16T18:51:01.176Z,4.58
2022-11-16T18:53:32.588Z,4.55
2022-11-16T18:56:01.228Z,4.52
2022-11-16T18:58:49.699Z,4.48
2022-11-16T19:01:22.780Z,4.43
2022-11-16T19:03:52.225Z,4.41
2022-11-16T19:06:21.737Z,4.36
2022-11-16T19:08:59.862Z,4.32
2022-11-16T19:11:28.841Z,4.30
2022-11-16T19:14:03.870Z,4.28
2022-11-16T19:16:32.047Z,4.25
2022-11-16T19:19:01.520Z,4.21
2022-11-16T19:21:29.963Z,4.18
2022-11-16T19:23:58.690Z,4.15
2022-11-16T19:26:27.976Z,4.12
2022-11-16T19:28:56.159Z,4.09
2022-11-16T19:31:29.344Z,4.05
2022-11-16T19:34:04.388Z,4.03
2022-11-16T19:36:34.141Z,4.00
2022-11-16T19:39:03.439Z,3.98
2022-11-16T19:41:31.919Z,3.95
2022-11-16T19:44:02.032Z,3.92
2022-11-16T19:46:33.784Z,3.90
2022-11-16T19:49:02.533Z,3.90
2022-11-16T19:51:32.622Z,3.89
2022-11-16T19:54:02.338Z,3.89
2022-11-16T19:56:30.754Z,3.87
2022-11-16T19:59:00.503Z,3.84
2022-11-16T20:01:29.770Z,3.84
2022-11-16T20:04:00.710Z,3.81
2022-11-16T20:06:37.888Z,3.79
2022-11-16T20:09:11.269Z,3.76
2022-11-16T20:11:41.285Z,3.74
2022-11-16T20:14:11.653Z,3.72
2022-11-16T20:16:41.427Z,3.68
2022-11-16T20:19:11.373Z,3.64
2022-11-16T20:21:44.345Z,3.61
2022-11-16T20:24:15.541Z,3.58
2022-11-16T20:26:46.459Z,3.55
2022-11-16T20:29:19.480Z,3.52
2022-11-16T20:31:48.987Z,3.51
2022-11-16T20:34:18.515Z,3.48
2022-11-16T20:36:51.206Z,3.45
2022-11-16T20:39:23.272Z,3.41
2022-11-16T20:41:51.868Z,3.37
2022-11-16T20:44:22.507Z,3.34
2022-11-16T20:46:52.664Z,3.31
2022-11-16T20:49:21.442Z,3.29
2022-11-16T20:51:51.865Z,3.26
2022-11-16T20:54:21.617Z,3.24
2022-11-16T20:56:51.284Z,3.22
2022-11-16T20:59:21.863Z,3.21
2022-11-16T21:01:53.298Z,3.20
2022-11-16T21:04:21.816Z,3.18
2022-11-16T21:06:50.492Z,3.17
2022-11-16T21:09:23.616Z,3.15
2022-11-16T21:12:10.587Z,3.13
2022-11-16T21:14:40.228Z,3.10
2022-11-16T21:17:09.285Z,3.08
2022-11-16T21:19:37.472Z,3.06
2022-11-16T21:22:05.563Z,3.04
2022-11-16T21:24:34.786Z,3.02
2022-11-16T21:27:02.892Z,3.00
2022-11-16T21:29:31.105Z,2.98
2022-11-16T21:31:59.435Z,2.96
2022-11-16T21:34:28.675Z,2.94
2022-11-16T21:36:56.943Z,2.92
2022-11-16T21:39:27.676Z,2.91
2022-11-16T21:41:57.324Z,2.90
2022-11-16T21:44:25.523Z,2.90
2022-11-16T21:46:54.385Z,2.89
2022-11-16T21:49:22.469Z,2.90
2022-11-16T21:51:50.640Z,2.90
2022-11-16T21:54:18.864Z,2.90
2022-11-16T21:56:46.967Z,2.91
2022-11-16T21:59:15.298Z,2.93
2022-11-16T22:02:09.508Z,2.93
2022-11-16T22:04:56.483Z,2.92
2022-11-16T22:07:33.490Z,2.92
2022-11-16T22:10:03.695Z,2.92
2022-11-16T22:12:32.275Z,2.92
2022-11-16T22:15:01.028Z,2.92
2022-11-16T22:17:36.843Z,2.92
2022-11-16T22:20:05.515Z,2.93
2022-11-16T22:22:33.752Z,2.94
2022-11-16T22:25:02.299Z,2.94
2022-11-16T22:27:30.682Z,2.94
2022-11-16T22:29:58.854Z,2.93
2022-11-16T22:32:26.965Z,2.93
2022-11-16T22:34:55.142Z,2.93
2022-11-16T22:37:23.269Z,2.93
2022-11-16T22:39:51.375Z,2.91
2022-11-16T22:42:19.479Z,2.90
2022-11-16T22:44:47.620Z,2.90
2022-11-16T22:47:15.774Z,2.90
2022-11-16T22:49:43.966Z,2.90
2022-11-16T22:52:12.178Z,2.89
2022-11-16T22:54:40.444Z,2.89
2022-11-16T22:57:08.569Z,2.88
2022-11-16T22:59:36.817Z,2.86
2022-11-16T23:02:05.827Z,2.85
2022-11-16T23:04:34.065Z,2.83
2022-11-16T23:07:02.290Z,2.82
2022-11-16T23:09:32.096Z,2.81
2022-11-16T23:12:18.977Z,2.80
2022-11-16T23:15:05.561Z,2.78
2022-11-16T23:17:33.747Z,2.77
2022-11-16T23:20:20.593Z,2.76
2022-11-16T23:23:07.439Z,2.75
2022-11-16T23:25:54.375Z,2.75
2022-11-16T23:28:22.637Z,2.75
2022-11-16T23:30:50.728Z,2.73
2022-11-16T23:33:38.800Z,2.70
2022-11-16T23:36:07.409Z,2.67
2022-11-16T23:38:35.526Z,2.63
2022-11-16T23:41:23.788Z,2.60
2022-11-16T23:43:58.399Z,2.57
2022-11-16T23:46:31.649Z,2.56
2022-11-16T23:49:00.932Z,2.54
2022-11-16T23:51:29.314Z,2.52
2022-11-16T23:53:57.894Z,2.51
2022-11-16T23:56:27.705Z,2.50
2022-11-16T23:58:59.507Z,2.50
